Time;durP1;ratioP1;P1;durP2;ratioP2;P2;SDS_P1;SDS_P2;PMS_P1;PMS_P2;Temp;Humidity;BMP_temperature;BMP_pressure;BME280_temperature;BME280_humidity;BME280_pressure;Samples;Min_cycle;Max_cycle;Signal;HPM_P1;HPM_P2
2022/08/10 00:00:32;;;;;;;;;3.00;3.00;;;;;;;;5058810;28;8815;-85
2022/08/10 00:03:01;;;;;;;;;4.80;4.00;;;;;;;;5058425;28;8878;-83
2022/08/10 00:05:28;;;;;;;;;4.40;4.40;;;;;;;;5064179;28;8875;-83
2022/08/10 00:07:56;;;;;;;;;3.40;3.40;;;;;;;;5063392;28;8862;-84
2022/08/10 00:10:24;;;;;;;;;6.80;4.40;;;;;;;;5063200;28;8871;-82
2022/08/10 00:12:52;;;;;;;;;4.60;4.00;;;;;;;;5056036;28;8908;-84
2022/08/10 00:15:21;;;;;;;;;3.00;3.00;;;;;;;;5058333;28;8896;-84
2022/08/10 00:17:48;;;;;;;;;2.20;2.20;;;;;;;;5060407;28;8985;-84
2022/08/10 00:20:18;;;;;;;;;4.00;4.00;;;;;;;;5059360;28;8881;-84
2022/08/10 00:22:45;;;;;;;;;3.60;3.60;;;;;;;;5063447;28;9072;-84
2022/08/10 00:25:12;;;;;;;;;4.00;4.00;;;;;;;;5060255;28;8886;-83
2022/08/10 00:27:39;;;;;;;;;3.00;3.00;;;;;;;;5058601;28;8874;-81
2022/08/10 00:30:07;;;;;;;;;3.60;3.60;;;;;;;;5060840;28;8871;-84
2022/08/10 00:32:35;;;;;;;;;3.00;3.00;;;;;;;;5058013;28;9648;-83
2022/08/10 00:35:02;;;;;;;;;5.00;5.00;;;;;;;;5060601;28;8971;-84
2022/08/10 00:37:32;;;;;;;;;3.40;3.40;;;;;;;;5063261;28;8859;-81
2022/08/10 00:39:59;;;;;;;;;3.80;3.80;;;;;;;;5056896;28;8839;-84
2022/08/10 00:42:27;;;;;;;;;5.20;4.20;;;;;;;;5058235;28;8885;-82
2022/08/10 00:44:55;;;;;;;;;1.60;1.60;;;;;;;;5059833;28;8870;-82
2022/08/10 00:47:22;;;;;;;;;3.40;3.40;;;;;;;;5062473;28;8883;-83
2022/08/10 00:49:49;;;;;;;;;3.00;3.00;;;;;;;;5058760;28;8871;-83
2022/08/10 00:52:18;;;;;;;;;5.20;5.20;;;;;;;;5060379;28;8882;-82
2022/08/10 00:54:48;;;;;;;;;2.00;2.00;;;;;;;;5066040;28;8863;-81
2022/08/10 00:57:16;;;;;;;;;4.00;2.60;;;;;;;;5062999;28;8940;-81
2022/08/10 00:59:43;;;;;;;;;3.00;3.00;;;;;;;;5065076;28;8862;-82
2022/08/10 01:02:11;;;;;;;;;3.80;3.80;;;;;;;;5066135;28;8799;-83
2022/08/10 01:04:38;;;;;;;;;4.00;4.00;;;;;;;;5060573;28;8859;-84
2022/08/10 01:07:24;;;;;;;;;3.60;3.00;;;;;;;;5061366;28;8880;-83
2022/08/10 01:10:07;;;;;;;;;2.00;2.00;;;;;;;;5060696;28;8895;-82
2022/08/10 01:12:38;;;;;;;;;4.80;4.60;;;;;;;;5060269;28;8908;-83
2022/08/10 01:15:11;;;;;;;;;3.20;3.20;;;;;;;;5060241;28;8850;-81
2022/08/10 01:17:45;;;;;;;;;4.60;4.60;;;;;;;;5062298;28;8886;-81
2022/08/10 01:20:22;;;;;;;;;4.00;4.00;;;;;;;;5060268;28;8910;-82
2022/08/10 01:23:14;;;;;;;;;4.00;4.00;;;;;;;;5057483;28;8891;-81
2022/08/10 01:25:50;;;;;;;;;3.40;3.40;;;;;;;;5057848;28;8894;-81
2022/08/10 01:28:30;;;;;;;;;6.00;5.00;;;;;;;;5057681;28;8919;-82
2022/08/10 01:31:02;;;;;;;;;3.00;3.00;;;;;;;;5063453;28;8844;-81
2022/08/10 01:33:32;;;;;;;;;4.60;4.60;;;;;;;;5065654;28;8932;-82
2022/08/10 01:36:05;;;;;;;;;3.00;3.00;;;;;;;;5064669;28;8997;-84
2022/08/10 01:38:33;;;;;;;;;4.00;4.00;;;;;;;;5068162;28;8871;-83
2022/08/10 01:41:05;;;;;;;;;3.60;3.60;;;;;;;;5066267;28;8855;-84
2022/08/10 01:43:35;;;;;;;;;4.40;4.40;;;;;;;;5068505;28;8870;-83
2022/08/10 01:46:05;;;;;;;;;4.00;4.00;;;;;;;;5070134;28;8856;-83
2022/08/10 01:48:35;;;;;;;;;2.80;2.80;;;;;;;;5061730;28;8870;-84
2022/08/10 01:51:09;;;;;;;;;3.60;3.60;;;;;;;;5072364;28;9555;-85
2022/08/10 01:53:40;;;;;;;;;4.00;4.00;;;;;;;;5065267;28;8870;-84
2022/08/10 01:56:09;;;;;;;;;3.00;3.00;;;;;;;;5066134;28;8886;-84
2022/08/10 01:58:37;;;;;;;;;3.00;3.00;;;;;;;;5069170;28;8905;-82
2022/08/10 02:01:08;;;;;;;;;3.00;3.00;;;;;;;;5065992;28;8858;-84
2022/08/10 02:03:39;;;;;;;;;3.40;3.40;;;;;;;;5063701;28;8870;-86
2022/08/10 02:06:08;;;;;;;;;4.20;3.60;;;;;;;;5062007;28;8858;-86
2022/08/10 02:08:36;;;;;;;;;3.80;3.80;;;;;;;;5066598;28;9001;-86
2022/08/10 02:11:04;;;;;;;;;4.00;4.00;;;;;;;;5065148;28;8851;-85
2022/08/10 02:13:32;;;;;;;;;4.20;4.20;;;;;;;;5066507;28;8909;-83
2022/08/10 02:16:01;;;;;;;;;4.00;4.00;;;;;;;;5060825;28;8867;-85
2022/08/10 02:18:31;;;;;;;;;3.20;3.20;;;;;;;;5064924;28;8913;-86
2022/08/10 02:21:00;;;;;;;;;4.00;4.00;;;;;;;;5066981;28;8892;-83
2022/08/10 02:23:30;;;;;;;;;4.00;4.00;;;;;;;;5064548;28;8891;-84
2022/08/10 02:26:00;;;;;;;;;2.25;2.25;;;;;;;;5065858;28;8866;-86
2022/08/10 02:28:29;;;;;;;;;2.40;2.40;;;;;;;;5067537;28;8936;-85
2022/08/10 02:31:00;;;;;;;;;4.25;4.25;;;;;;;;5063480;28;8885;-83
2022/08/10 02:33:30;;;;;;;;;3.00;3.00;;;;;;;;5063726;28;8921;-84
2022/08/10 02:36:00;;;;;;;;;4.00;4.00;;;;;;;;5061794;28;8874;-82
2022/08/10 02:38:32;;;;;;;;;4.00;4.00;;;;;;;;5063433;28;8874;-83
2022/08/10 02:41:04;;;;;;;;;3.00;3.00;;;;;;;;5057682;28;8871;-83
2022/08/10 02:43:35;;;;;;;;;4.75;4.75;;;;;;;;5066157;28;8869;-82
2022/08/10 02:46:07;;;;;;;;;4.50;4.00;;;;;;;;5060839;28;8887;-83
2022/08/10 02:48:41;;;;;;;;;3.75;3.75;;;;;;;;5060819;28;8983;-82
2022/08/10 02:51:27;;;;;;;;;5.50;3.75;;;;;;;;5060224;28;8888;-84
2022/08/10 02:53:59;;;;;;;;;4.25;4.25;;;;;;;;5063444;28;8881;-85
2022/08/10 02:56:34;;;;;;;;;4.00;4.00;;;;;;;;5059843;28;8895;-82
2022/08/10 02:59:07;;;;;;;;;5.50;5.00;;;;;;;;5062583;28;8871;-82
2022/08/10 03:01:37;;;;;;;;;3.00;3.00;;;;;;;;5056469;28;8954;-82
2022/08/10 03:04:08;;;;;;;;;5.00;4.25;;;;;;;;5062764;28;8892;-82
2022/08/10 03:06:38;;;;;;;;;5.00;5.00;;;;;;;;5060871;28;8862;-83
2022/08/10 03:09:08;;;;;;;;;4.75;4.00;;;;;;;;5063192;28;8908;-78
2022/08/10 03:11:36;;;;;;;;;3.50;3.50;;;;;;;;5060355;28;8874;-90
2022/08/10 03:14:05;;;;;;;;;3.00;3.00;;;;;;;;5061612;28;8872;-84
2022/08/10 03:16:33;;;;;;;;;4.00;4.00;;;;;;;;5060037;28;8931;-86
2022/08/10 03:19:04;;;;;;;;;3.75;3.75;;;;;;;;5061647;28;8889;-84
2022/08/10 03:21:33;;;;;;;;;4.25;3.00;;;;;;;;5061686;28;8977;-84
2022/08/10 03:24:02;;;;;;;;;3.75;3.75;;;;;;;;5059660;28;8874;-82
2022/08/10 03:26:30;;;;;;;;;4.00;4.00;;;;;;;;5063607;28;8858;-88
2022/08/10 03:28:59;;;;;;;;;5.75;4.00;;;;;;;;5060784;28;9051;-84
2022/08/10 03:31:27;;;;;;;;;3.50;3.00;;;;;;;;5059973;28;8839;-83
2022/08/10 03:33:55;;;;;;;;;3.75;3.75;;;;;;;;5058558;28;8850;-87
2022/08/10 03:36:23;;;;;;;;;3.00;3.00;;;;;;;;5062016;28;8970;-84
2022/08/10 03:38:54;;;;;;;;;7.00;4.00;;;;;;;;5057404;28;8866;-85
2022/08/10 03:41:26;;;;;;;;;3.75;3.75;;;;;;;;5065993;28;8867;-85
2022/08/10 03:43:54;;;;;;;;;4.00;4.00;;;;;;;;5060564;28;8882;-83
2022/08/10 03:46:24;;;;;;;;;6.00;4.00;;;;;;;;5061245;28;8945;-85
2022/08/10 03:48:54;;;;;;;;;4.75;4.50;;;;;;;;5061915;28;8977;-84
2022/08/10 03:51:23;;;;;;;;;5.75;4.00;;;;;;;;5056238;28;9694;-81
2022/08/10 03:53:52;;;;;;;;;6.00;5.00;;;;;;;;5061787;28;8878;-82
2022/08/10 03:56:20;;;;;;;;;6.00;3.25;;;;;;;;5061227;28;8850;-82
2022/08/10 03:58:48;;;;;;;;;5.75;5.75;;;;;;;;5065472;28;8898;-81
2022/08/10 04:01:16;;;;;;;;;4.25;4.25;;;;;;;;5062179;28;8835;-82
2022/08/10 04:03:43;;;;;;;;;3.75;3.75;;;;;;;;5059562;28;9764;-80
2022/08/10 04:06:12;;;;;;;;;4.00;4.00;;;;;;;;5064925;28;8863;-81
2022/08/10 04:08:41;;;;;;;;;6.00;6.00;;;;;;;;5063879;28;8894;-81
2022/08/10 04:11:10;;;;;;;;;5.75;5.75;;;;;;;;5059957;28;8863;-81
2022/08/10 04:13:38;;;;;;;;;5.50;5.50;;;;;;;;5062394;28;9622;-80
2022/08/10 04:16:07;;;;;;;;;5.75;5.75;;;;;;;;5062791;28;8886;-80
2022/08/10 04:18:34;;;;;;;;;6.25;6.00;;;;;;;;5061446;28;8859;-82
2022/08/10 04:21:04;;;;;;;;;4.75;4.75;;;;;;;;5061395;28;8870;-81
2022/08/10 04:23:34;;;;;;;;;4.25;4.25;;;;;;;;5063891;28;8859;-81
2022/08/10 04:26:01;;;;;;;;;6.00;6.00;;;;;;;;5061808;28;8985;-82
2022/08/10 04:28:31;;;;;;;;;4.50;4.50;;;;;;;;5060870;28;8902;-81
2022/08/10 04:30:59;;;;;;;;;4.25;4.25;;;;;;;;5062196;28;8831;-81
2022/08/10 04:33:28;;;;;;;;;7.00;5.50;;;;;;;;5058643;28;8921;-81
2022/08/10 04:35:57;;;;;;;;;5.00;5.00;;;;;;;;5057394;28;8972;-80
2022/08/10 04:38:25;;;;;;;;;5.00;5.00;;;;;;;;5060232;28;9256;-81
2022/08/10 04:40:53;;;;;;;;;6.00;6.00;;;;;;;;5063332;28;8929;-82
2022/08/10 04:43:20;;;;;;;;;4.25;4.25;;;;;;;;5060393;28;8953;-82
2022/08/10 04:45:49;;;;;;;;;5.25;5.25;;;;;;;;5061882;28;8908;-80
2022/08/10 04:48:16;;;;;;;;;5.50;5.50;;;;;;;;5063394;28;9732;-80
2022/08/10 04:50:43;;;;;;;;;5.00;5.00;;;;;;;;5063692;28;8890;-79
2022/08/10 04:53:10;;;;;;;;;5.50;5.50;;;;;;;;5062165;28;8874;-80
2022/08/10 04:55:38;;;;;;;;;4.75;4.00;;;;;;;;5059183;28;8865;-79
2022/08/10 04:58:05;;;;;;;;;7.25;4.50;;;;;;;;5065819;28;8850;-80
2022/08/10 05:00:32;;;;;;;;;6.00;6.00;;;;;;;;5061219;28;9410;-80
2022/08/10 05:03:01;;;;;;;;;6.25;5.25;;;;;;;;5060153;28;8913;-80
2022/08/10 05:05:29;;;;;;;;;5.00;3.75;;;;;;;;5060456;28;8981;-81
2022/08/10 05:07:56;;;;;;;;;5.25;5.25;;;;;;;;5063590;28;8887;-80
2022/08/10 05:10:24;;;;;;;;;4.00;4.00;;;;;;;;5059366;28;8957;-80
2022/08/10 05:12:51;;;;;;;;;5.00;5.00;;;;;;;;5062423;28;9682;-81
2022/08/10 05:15:21;;;;;;;;;5.50;5.50;;;;;;;;5062963;28;9736;-80
2022/08/10 05:17:48;;;;;;;;;6.00;6.00;;;;;;;;5063147;28;8858;-80
2022/08/10 05:20:19;;;;;;;;;4.33;4.00;;;;;;;;5066637;28;8867;-80
2022/08/10 05:22:46;;;;;;;;;5.00;4.00;;;;;;;;5057073;28;8885;-80
2022/08/10 05:25:15;;;;;;;;;7.50;4.50;;;;;;;;5062901;28;8938;-80
2022/08/10 05:27:44;;;;;;;;;3.00;3.00;;;;;;;;5061979;28;8888;-80
2022/08/10 05:30:13;;;;;;;;;7.25;6.00;;;;;;;;5060439;28;8895;-80
2022/08/10 05:32:41;;;;;;;;;5.50;4.00;;;;;;;;5059564;28;8878;-80
2022/08/10 05:35:09;;;;;;;;;7.50;5.50;;;;;;;;5064155;28;8864;-79
2022/08/10 05:37:38;;;;;;;;;5.00;5.00;;;;;;;;5062800;28;8875;-80
2022/08/10 05:40:07;;;;;;;;;5.00;5.00;;;;;;;;5062132;28;8908;-81
2022/08/10 05:42:34;;;;;;;;;4.00;4.00;;;;;;;;5064985;28;8971;-81
2022/08/10 05:45:02;;;;;;;;;7.25;5.75;;;;;;;;5064865;28;8869;-80
2022/08/10 05:47:30;;;;;;;;;4.25;4.25;;;;;;;;5063166;28;8868;-80
2022/08/10 05:49:57;;;;;;;;;3.75;3.75;;;;;;;;5065073;28;9052;-81
2022/08/10 05:52:25;;;;;;;;;6.00;6.00;;;;;;;;5062482;28;8897;-80
2022/08/10 05:54:56;;;;;;;;;4.00;4.00;;;;;;;;5064635;28;8904;-83
2022/08/10 05:57:24;;;;;;;;;6.50;6.50;;;;;;;;5062388;28;8877;-81
2022/08/10 05:59:56;;;;;;;;;6.00;6.00;;;;;;;;5064640;28;8855;-83
2022/08/10 06:02:28;;;;;;;;;3.00;3.00;;;;;;;;5062616;28;8812;-80
2022/08/10 06:04:58;;;;;;;;;6.25;6.25;;;;;;;;5064747;28;8911;-82
2022/08/10 06:07:27;;;;;;;;;6.00;4.00;;;;;;;;5062409;28;8962;-80
2022/08/10 06:09:56;;;;;;;;;6.00;5.00;;;;;;;;5064749;28;8880;-73
2022/08/10 06:12:26;;;;;;;;;5.00;5.00;;;;;;;;5065232;28;8893;-80
2022/08/10 06:15:03;;;;;;;;;4.00;4.00;;;;;;;;5067820;28;8998;-79
2022/08/10 06:17:33;;;;;;;;;5.75;5.75;;;;;;;;5065856;28;8997;-78
2022/08/10 06:20:02;;;;;;;;;7.00;5.50;;;;;;;;5061936;28;8891;-77
2022/08/10 06:22:31;;;;;;;;;6.25;6.25;;;;;;;;5047264;28;9641;-78
2022/08/10 06:25:02;;;;;;;;;6.00;4.00;;;;;;;;5065234;28;8935;-78
2022/08/10 06:27:29;;;;;;;;;5.75;4.75;;;;;;;;5065404;28;8989;-80
2022/08/10 06:29:57;;;;;;;;;3.50;3.50;;;;;;;;5067476;28;8846;-79
2022/08/10 06:32:27;;;;;;;;;6.75;6.75;;;;;;;;5064562;28;8835;-78
2022/08/10 06:34:58;;;;;;;;;6.00;6.00;;;;;;;;5065649;28;9631;-77
2022/08/10 06:37:27;;;;;;;;;6.00;6.00;;;;;;;;5062385;28;8844;-75
2022/08/10 06:39:55;;;;;;;;;2.00;2.00;;;;;;;;5062932;28;8924;-80
2022/08/10 06:42:29;;;;;;;;;5.50;5.50;;;;;;;;5061716;28;8866;-76
2022/08/10 06:45:00;;;;;;;;;5.00;5.00;;;;;;;;5063233;28;8854;-74
2022/08/10 06:47:36;;;;;;;;;6.75;6.75;;;;;;;;5061916;28;8885;-75
2022/08/10 06:50:17;;;;;;;;;6.00;6.00;;;;;;;;5064957;28;8939;-73
2022/08/10 06:52:50;;;;;;;;;6.75;6.75;;;;;;;;5068106;28;10769;-75
2022/08/10 06:55:19;;;;;;;;;5.75;5.75;;;;;;;;5060406;28;8894;-74
2022/08/10 06:57:49;;;;;;;;;9.50;7.00;;;;;;;;5070546;28;8946;-74
2022/08/10 07:00:17;;;;;;;;;6.50;6.50;;;;;;;;5063248;28;8914;-74
2022/08/10 07:02:48;;;;;;;;;6.00;6.00;;;;;;;;5062855;28;8920;-74
2022/08/10 07:05:19;;;;;;;;;6.25;6.25;;;;;;;;5058441;28;8878;-74
2022/08/10 07:07:49;;;;;;;;;5.75;5.75;;;;;;;;5060117;28;8892;-74
2022/08/10 07:10:19;;;;;;;;;5.25;5.00;;;;;;;;5063808;28;8868;-75
2022/08/10 07:12:49;;;;;;;;;5.75;5.75;;;;;;;;5058474;28;8987;-78
2022/08/10 07:15:17;;;;;;;;;7.00;7.00;;;;;;;;5057421;28;8866;-77
2022/08/10 07:17:45;;;;;;;;;6.75;6.50;;;;;;;;5059782;28;8881;-81
2022/08/10 07:20:16;;;;;;;;;7.00;7.00;;;;;;;;5054945;28;8929;-78
2022/08/10 07:22:45;;;;;;;;;7.00;7.00;;;;;;;;5057190;28;8854;-83
2022/08/10 07:25:14;;;;;;;;;7.00;7.00;;;;;;;;5058484;28;8979;-75
2022/08/10 07:27:42;;;;;;;;;7.00;6.80;;;;;;;;5059088;28;8988;-79
2022/08/10 07:30:12;;;;;;;;;6.00;6.00;;;;;;;;5060584;28;8862;-78
2022/08/10 07:32:42;;;;;;;;;7.80;7.80;;;;;;;;5060754;28;8859;-77
2022/08/10 07:35:13;;;;;;;;;7.00;7.00;;;;;;;;5061115;28;8875;-74
2022/08/10 07:37:41;;;;;;;;;7.00;7.00;;;;;;;;5064941;28;8936;-74
2022/08/10 07:40:09;;;;;;;;;7.20;7.20;;;;;;;;5062891;28;8959;-76
2022/08/10 07:42:38;;;;;;;;;8.40;8.20;;;;;;;;5046783;28;8854;-72
2022/08/10 07:45:10;;;;;;;;;7.60;7.60;;;;;;;;5054938;28;8886;-73
2022/08/10 07:47:44;;;;;;;;;7.20;7.20;;;;;;;;5062186;28;8913;-74
2022/08/10 07:50:16;;;;;;;;;9.60;7.60;;;;;;;;5059197;28;9059;-81
2022/08/10 07:52:44;;;;;;;;;7.00;7.00;;;;;;;;5057270;28;8859;-75
2022/08/10 07:55:15;;;;;;;;;7.80;7.80;;;;;;;;5057440;28;8867;-76
2022/08/10 07:57:44;;;;;;;;;4.80;4.80;;;;;;;;5058724;28;10012;-75
2022/08/10 08:00:13;;;;;;;;;5.00;5.00;;;;;;;;5061929;28;8882;-73
2022/08/10 08:02:45;;;;;;;;;7.00;7.00;;;;;;;;5062046;28;8921;-73
2022/08/10 08:05:14;;;;;;;;;7.80;7.80;;;;;;;;5058668;28;8863;-82
2022/08/10 08:07:43;;;;;;;;;7.40;7.40;;;;;;;;5060840;28;9236;-78
2022/08/10 08:10:12;;;;;;;;;5.60;5.60;;;;;;;;5059602;28;8897;-82
2022/08/10 08:12:44;;;;;;;;;8.80;8.80;;;;;;;;5057746;28;9001;-79
2022/08/10 08:15:13;;;;;;;;;7.00;7.00;;;;;;;;5061061;28;8868;-77
2022/08/10 08:17:43;;;;;;;;;8.80;8.80;;;;;;;;5056840;28;8867;-82
2022/08/10 08:20:11;;;;;;;;;5.80;5.80;;;;;;;;5058887;28;9654;-82
2022/08/10 08:22:39;;;;;;;;;6.00;6.00;;;;;;;;5060197;28;8870;-79
2022/08/10 08:25:08;;;;;;;;;6.80;5.80;;;;;;;;5061421;28;8965;-79
2022/08/10 08:27:36;;;;;;;;;8.20;7.40;;;;;;;;5057224;28;11082;-79
2022/08/10 08:30:06;;;;;;;;;8.40;8.40;;;;;;;;5063883;28;8875;-83
2022/08/10 08:32:37;;;;;;;;;4.80;4.80;;;;;;;;5053851;28;8961;-81
2022/08/10 08:35:09;;;;;;;;;11.20;8.40;;;;;;;;5055492;28;9001;-76
2022/08/10 08:37:38;;;;;;;;;7.00;7.00;;;;;;;;5057519;28;8888;-80
2022/08/10 08:40:08;;;;;;;;;7.20;7.20;;;;;;;;5062939;28;9008;-77
2022/08/10 08:43:02;;;;;;;;;7.20;6.60;;;;;;;;5056396;28;8887;-81
2022/08/10 08:45:36;;;;;;;;;3.60;3.40;;;;;;;;5060073;28;8887;-76
2022/08/10 08:48:30;;;;;;;;;8.00;8.00;;;;;;;;5059974;28;8874;-79
2022/08/10 08:51:08;;;;;;;;;6.40;6.40;;;;;;;;5056245;28;8875;-80
2022/08/10 08:53:49;;;;;;;;;5.60;5.60;;;;;;;;5059792;28;8877;-80
2022/08/10 08:56:25;;;;;;;;;8.20;8.20;;;;;;;;5058499;28;8906;-77
2022/08/10 08:59:06;;;;;;;;;4.20;4.20;;;;;;;;5058460;28;8980;-77
2022/08/10 09:01:53;;;;;;;;;5.00;5.00;;;;;;;;5056415;28;8824;-80
2022/08/10 09:04:34;;;;;;;;;5.60;5.60;;;;;;;;5059048;28;9445;-81
2022/08/10 09:07:45;;;;;;;;;4.80;4.00;;;;;;;;5057347;28;8916;-83
2022/08/10 09:10:21;;;;;;;;;6.40;6.40;;;;;;;;5049794;28;8873;-74
2022/08/10 09:12:54;;;;;;;;;8.60;8.60;;;;;;;;5063736;28;8995;-81
2022/08/10 09:15:29;;;;;;;;;8.00;8.00;;;;;;;;5060155;28;8855;-78
2022/08/10 09:18:07;;;;;;;;;7.00;7.00;;;;;;;;5058493;28;8912;-79
2022/08/10 09:20:41;;;;;;;;;6.80;6.80;;;;;;;;5060433;28;8870;-78
2022/08/10 09:23:14;;;;;;;;;6.00;6.00;;;;;;;;5058963;28;8920;-80
2022/08/10 09:25:52;;;;;;;;;8.40;8.40;;;;;;;;5064268;28;8863;-81
2022/08/10 09:28:24;;;;;;;;;6.40;6.20;;;;;;;;5061046;28;8919;-77
2022/08/10 09:30:58;;;;;;;;;6.00;6.00;;;;;;;;5056755;28;8854;-77
2022/08/10 09:33:35;;;;;;;;;6.00;6.00;;;;;;;;5055970;28;8883;-78
2022/08/10 09:36:12;;;;;;;;;7.00;7.00;;;;;;;;5060560;28;8885;-81
2022/08/10 09:38:48;;;;;;;;;7.80;6.80;;;;;;;;5065126;28;8882;-80
2022/08/10 09:41:28;;;;;;;;;7.40;6.00;;;;;;;;5071575;28;8872;-77
2022/08/10 09:44:04;;;;;;;;;7.00;7.00;;;;;;;;5067773;28;8868;-81
2022/08/10 09:46:50;;;;;;;;;7.20;6.00;;;;;;;;5058241;28;8870;-77
2022/08/10 09:49:22;;;;;;;;;10.20;8.00;;;;;;;;5062871;28;8984;-78
2022/08/10 09:51:56;;;;;;;;;6.40;6.40;;;;;;;;5063616;28;8854;-75
2022/08/10 09:54:36;;;;;;;;;6.00;6.00;;;;;;;;5061473;28;8910;-76
2022/08/10 09:57:16;;;;;;;;;7.40;7.40;;;;;;;;5062243;28;8997;-71
2022/08/10 09:59:54;;;;;;;;;7.60;7.60;;;;;;;;5058622;28;8870;-80
2022/08/10 10:02:27;;;;;;;;;5.80;4.20;;;;;;;;5062607;28;8827;-79
2022/08/10 10:05:03;;;;;;;;;5.80;5.20;;;;;;;;5059303;28;8850;-78
2022/08/10 10:07:31;;;;;;;;;8.80;7.00;;;;;;;;5057011;28;8857;-76
2022/08/10 10:10:03;;;;;;;;;5.80;5.80;;;;;;;;5058241;28;8985;-74
2022/08/10 10:12:40;;;;;;;;;90.25;84.00;;;;;;;;5063838;28;8916;-76
2022/08/10 10:15:21;;;;;;;;;10.80;9.60;;;;;;;;5062134;28;8897;-79
2022/08/10 10:18:08;;;;;;;;;120.25;118.25;;;;;;;;5060985;28;8906;-80
2022/08/10 10:20:41;;;;;;;;;8.40;8.40;;;;;;;;5061384;28;11679;-76
2022/08/10 10:23:16;;;;;;;;;9.20;7.20;;;;;;;;5060723;28;8882;-76
2022/08/10 10:25:50;;;;;;;;;65.20;54.20;;;;;;;;5060711;28;10944;-77
2022/08/10 10:28:32;;;;;;;;;17.00;17.00;;;;;;;;5061582;28;8869;-76
2022/08/10 10:31:07;;;;;;;;;38.20;34.20;;;;;;;;5061156;28;8868;-77
2022/08/10 10:33:43;;;;;;;;;47.20;40.60;;;;;;;;5063497;28;8884;-75
2022/08/10 10:36:11;;;;;;;;;9.40;8.60;;;;;;;;5062457;28;8862;-77
2022/08/10 10:38:40;;;;;;;;;6.60;6.60;;;;;;;;5061771;28;8888;-75
2022/08/10 10:41:14;;;;;;;;;7.20;7.20;;;;;;;;5062829;28;8862;-75
2022/08/10 10:44:03;;;;;;;;;5.60;5.60;;;;;;;;5059004;28;8839;-74
2022/08/10 10:46:47;;;;;;;;;7.80;7.80;;;;;;;;5067698;28;8889;-74
2022/08/10 10:49:23;;;;;;;;;7.00;7.00;;;;;;;;5063877;28;8835;-75
2022/08/10 10:51:58;;;;;;;;;7.40;7.40;;;;;;;;5063555;28;8875;-76
2022/08/10 10:54:35;;;;;;;;;8.20;8.20;;;;;;;;5065249;28;8855;-76
2022/08/10 10:57:10;;;;;;;;;6.20;6.20;;;;;;;;5061425;28;8963;-79
2022/08/10 10:59:44;;;;;;;;;7.00;5.00;;;;;;;;5059338;28;8870;-74
2022/08/10 11:02:22;;;;;;;;;6.80;5.80;;;;;;;;5060375;28;8827;-75
2022/08/10 11:04:57;;;;;;;;;6.60;6.40;;;;;;;;5060552;28;8894;-77
2022/08/10 11:07:29;;;;;;;;;6.40;6.40;;;;;;;;5061435;28;8912;-79
2022/08/10 11:09:59;;;;;;;;;4.80;4.80;;;;;;;;5056440;28;8871;-79
2022/08/10 11:12:34;;;;;;;;;7.60;7.60;;;;;;;;5060566;28;8894;-77
2022/08/10 11:15:07;;;;;;;;;6.00;6.00;;;;;;;;5059318;28;8913;-74
2022/08/10 11:17:40;;;;;;;;;5.80;5.80;;;;;;;;5063427;28;8859;-80
2022/08/10 11:20:13;;;;;;;;;5.00;5.00;;;;;;;;5064202;28;8967;-72
2022/08/10 11:22:46;;;;;;;;;4.20;4.20;;;;;;;;5054732;28;8901;-74
2022/08/10 11:25:19;;;;;;;;;8.00;8.00;;;;;;;;5058302;28;8887;-74
2022/08/10 11:27:51;;;;;;;;;7.20;7.20;;;;;;;;5059768;28;8846;-75
2022/08/10 11:30:24;;;;;;;;;5.60;5.60;;;;;;;;5061269;28;8931;-74
2022/08/10 11:33:03;;;;;;;;;6.40;5.80;;;;;;;;5058947;28;8869;-76
2022/08/10 11:35:38;;;;;;;;;7.40;7.40;;;;;;;;5061896;28;8871;-75
2022/08/10 11:38:12;;;;;;;;;7.00;7.00;;;;;;;;5062440;28;9851;-74
2022/08/10 11:40:44;;;;;;;;;7.80;6.20;;;;;;;;5064307;28;8918;-73
2022/08/10 11:43:20;;;;;;;;;5.00;5.00;;;;;;;;5062197;28;8871;-73
2022/08/10 11:45:55;;;;;;;;;6.60;6.60;;;;;;;;5060189;28;8850;-81
2022/08/10 11:48:31;;;;;;;;;5.40;5.40;;;;;;;;5057115;28;8879;-76
2022/08/10 11:51:00;;;;;;;;;6.80;6.00;;;;;;;;5061189;28;8870;-74
2022/08/10 11:53:32;;;;;;;;;5.40;5.00;;;;;;;;5063791;28;8998;-77
2022/08/10 11:56:00;;;;;;;;;6.00;6.00;;;;;;;;5064680;28;8866;-77
2022/08/10 12:01:20;;;;;;;;;6.00;6.00;;;;;;;;5061092;28;8831;-76
2022/08/10 12:03:49;;;;;;;;;6.60;5.80;;;;;;;;5062995;28;8858;-74
2022/08/10 12:06:18;;;;;;;;;1.60;1.60;;;;;;;;5061959;28;8999;-76
2022/08/10 12:08:49;;;;;;;;;5.00;5.00;;;;;;;;5064302;28;9640;-77
2022/08/10 12:11:17;;;;;;;;;6.60;6.60;;;;;;;;5057797;28;8866;-80
2022/08/10 12:13:49;;;;;;;;;8.20;6.40;;;;;;;;5057881;28;8905;-76
2022/08/10 12:16:20;;;;;;;;;6.60;5.40;;;;;;;;5061180;28;9000;-80
2022/08/10 12:18:53;;;;;;;;;6.80;6.80;;;;;;;;5061544;28;8855;-81
2022/08/10 12:21:22;;;;;;;;;7.40;6.80;;;;;;;;5064893;28;8879;-82
2022/08/10 12:23:55;;;;;;;;;6.80;6.80;;;;;;;;5058740;28;8981;-81
2022/08/10 12:26:31;;;;;;;;;5.00;5.00;;;;;;;;5058846;28;8869;-79
2022/08/10 12:29:03;;;;;;;;;7.20;5.80;;;;;;;;5055904;28;8891;-80
2022/08/10 12:31:41;;;;;;;;;5.00;5.00;;;;;;;;5051872;28;8814;-78
2022/08/10 12:34:17;;;;;;;;;4.60;4.60;;;;;;;;5063871;28;8960;-76
2022/08/10 12:36:48;;;;;;;;;6.40;6.40;;;;;;;;5061469;28;8862;-76
2022/08/10 12:39:19;;;;;;;;;5.40;5.40;;;;;;;;5060789;28;8886;-76
2022/08/10 12:41:51;;;;;;;;;4.00;4.00;;;;;;;;5057425;28;8870;-77
2022/08/10 12:44:25;;;;;;;;;7.00;7.00;;;;;;;;5061437;28;8855;-77
2022/08/10 12:47:00;;;;;;;;;7.20;5.60;;;;;;;;5057348;28;8886;-82
2022/08/10 12:49:32;;;;;;;;;6.60;6.60;;;;;;;;5067901;28;8990;-79
2022/08/10 12:52:11;;;;;;;;;7.00;7.00;;;;;;;;5065120;28;8854;-79
2022/08/10 12:54:40;;;;;;;;;5.40;5.40;;;;;;;;5066200;28;8906;-80
2022/08/10 12:57:10;;;;;;;;;5.40;5.40;;;;;;;;5062638;28;8858;-79
2022/08/10 12:59:38;;;;;;;;;7.00;7.00;;;;;;;;5064008;28;8973;-77
2022/08/10 13:02:08;;;;;;;;;5.60;5.60;;;;;;;;5066118;28;9576;-82
2022/08/10 13:04:38;;;;;;;;;6.40;6.40;;;;;;;;5060667;28;9712;-76
2022/08/10 13:07:06;;;;;;;;;6.80;6.80;;;;;;;;5064842;28;9018;-78
2022/08/10 13:09:35;;;;;;;;;6.40;6.40;;;;;;;;5059716;28;8866;-78
2022/08/10 13:12:05;;;;;;;;;7.00;7.00;;;;;;;;5065808;28;8864;-75
2022/08/10 13:14:35;;;;;;;;;6.00;6.00;;;;;;;;5060946;28;9629;-79
2022/08/10 13:17:04;;;;;;;;;6.80;6.20;;;;;;;;5063209;28;8852;-77
2022/08/10 13:19:36;;;;;;;;;7.60;7.60;;;;;;;;5068271;28;8963;-75
2022/08/10 13:22:04;;;;;;;;;6.20;6.20;;;;;;;;5063767;28;8854;-80
2022/08/10 13:24:34;;;;;;;;;7.00;7.00;;;;;;;;5059336;28;8894;-81
2022/08/10 13:27:04;;;;;;;;;7.40;7.40;;;;;;;;5061277;28;8864;-80
2022/08/10 13:29:35;;;;;;;;;5.80;5.80;;;;;;;;5065683;28;8894;-81
2022/08/10 13:32:07;;;;;;;;;6.80;6.80;;;;;;;;5066792;28;8823;-82
2022/08/10 13:34:38;;;;;;;;;10.00;8.20;;;;;;;;5066995;28;8859;-82
2022/08/10 13:37:10;;;;;;;;;8.60;8.60;;;;;;;;5068967;28;8886;-81
2022/08/10 13:39:39;;;;;;;;;6.80;6.80;;;;;;;;5062875;28;8878;-81
2022/08/10 13:42:09;;;;;;;;;6.20;6.20;;;;;;;;5061436;28;8878;-82
2022/08/10 13:44:40;;;;;;;;;6.20;6.20;;;;;;;;5066515;28;8863;-81
2022/08/10 13:47:09;;;;;;;;;7.80;7.80;;;;;;;;5064708;28;8851;-82
2022/08/10 13:49:47;;;;;;;;;6.20;6.20;;;;;;;;5068976;28;8892;-80
2022/08/10 13:52:16;;;;;;;;;5.40;5.40;;;;;;;;5060287;28;8875;-80
2022/08/10 13:54:47;;;;;;;;;7.00;7.00;;;;;;;;5069633;28;9657;-81
2022/08/10 13:57:22;;;;;;;;;7.40;7.40;;;;;;;;5065412;28;8870;-81
2022/08/10 13:59:52;;;;;;;;;6.00;6.00;;;;;;;;5062574;28;8882;-80
2022/08/10 14:02:25;;;;;;;;;5.80;5.80;;;;;;;;5054242;28;8843;-81
2022/08/10 14:04:56;;;;;;;;;5.80;5.80;;;;;;;;5063812;28;8969;-81
2022/08/10 14:07:24;;;;;;;;;5.20;5.20;;;;;;;;5066065;28;8851;-81
2022/08/10 14:09:57;;;;;;;;;7.20;7.20;;;;;;;;5065952;28;8970;-81
2022/08/10 14:12:27;;;;;;;;;6.00;6.00;;;;;;;;5063737;28;8878;-81
2022/08/10 14:14:54;;;;;;;;;6.80;6.80;;;;;;;;5064757;28;8998;-81
2022/08/10 14:17:25;;;;;;;;;9.00;7.40;;;;;;;;5069536;28;8894;-81
2022/08/10 14:19:58;;;;;;;;;5.20;5.20;;;;;;;;5065376;28;8867;-80
2022/08/10 14:22:26;;;;;;;;;6.20;6.20;;;;;;;;5062678;28;8866;-80
2022/08/10 14:24:55;;;;;;;;;4.00;4.00;;;;;;;;5065750;28;8862;-82
2022/08/10 14:27:24;;;;;;;;;4.60;4.60;;;;;;;;5065081;28;8952;-82
2022/08/10 14:29:54;;;;;;;;;5.00;5.00;;;;;;;;5068830;28;8859;-82
2022/08/10 14:32:27;;;;;;;;;5.40;5.40;;;;;;;;5063031;28;8830;-82
2022/08/10 14:35:04;;;;;;;;;4.20;3.00;;;;;;;;5063569;28;8895;-81
2022/08/10 14:37:34;;;;;;;;;5.00;5.00;;;;;;;;5070543;28;8960;-81
2022/08/10 14:40:05;;;;;;;;;3.60;3.60;;;;;;;;5065796;28;8866;-80
2022/08/10 14:42:47;;;;;;;;;5.00;5.00;;;;;;;;5062742;28;8901;-81
2022/08/10 14:45:22;;;;;;;;;4.40;4.40;;;;;;;;5064755;28;8959;-81
2022/08/10 14:47:51;;;;;;;;;4.00;4.00;;;;;;;;5065812;28;8872;-79
2022/08/10 14:50:25;;;;;;;;;4.00;4.00;;;;;;;;5063523;28;8952;-80
2022/08/10 14:52:53;;;;;;;;;5.00;5.00;;;;;;;;5066118;28;9737;-79
2022/08/10 14:55:21;;;;;;;;;5.00;5.00;;;;;;;;5064259;28;8874;-80
2022/08/10 14:57:48;;;;;;;;;4.80;4.80;;;;;;;;5065693;28;9501;-81
2022/08/10 15:00:16;;;;;;;;;5.00;5.00;;;;;;;;5066158;28;8871;-81
2022/08/10 15:02:47;;;;;;;;;3.60;3.60;;;;;;;;5063457;28;9711;-80
2022/08/10 15:05:17;;;;;;;;;5.00;5.00;;;;;;;;5066577;28;8867;-81
2022/08/10 15:07:48;;;;;;;;;4.40;4.40;;;;;;;;5060564;28;8878;-81
2022/08/10 15:10:20;;;;;;;;;5.60;4.60;;;;;;;;5060174;28;8858;-79
2022/08/10 15:12:48;;;;;;;;;5.00;5.00;;;;;;;;5066492;28;8892;-80
2022/08/10 15:15:18;;;;;;;;;2.40;2.20;;;;;;;;5067385;28;8870;-80
2022/08/10 15:17:47;;;;;;;;;5.40;5.00;;;;;;;;5064943;28;9020;-80
2022/08/10 15:20:19;;;;;;;;;4.00;4.00;;;;;;;;5065260;28;8966;-80
2022/08/10 15:22:49;;;;;;;;;4.20;4.20;;;;;;;;5061408;28;8886;-81